createdAt,value
2019-04-28T00:04:00.000Z,11.6
2019-04-28T00:09:00.000Z,11.6
2019-04-28T00:14:00.000Z,11.6
2019-04-28T00:19:00.000Z,11.6
2019-04-28T00:24:00.000Z,11.7
2019-04-28T00:29:00.000Z,11.7
2019-04-28T00:34:00.000Z,11.7
2019-04-28T00:39:00.000Z,11.7
2019-04-28T00:44:00.000Z,11.7
2019-04-28T00:49:00.000Z,11.6
2019-04-28T00:54:00.000Z,11.6
2019-04-28T00:59:00.000Z,11.6
2019-04-28T01:04:00.000Z,11.5
2019-04-28T01:10:00.000Z,11.4
2019-04-28T01:15:00.000Z,11.3
2019-04-28T01:20:00.000Z,11.3
2019-04-28T01:25:00.000Z,11.2
2019-04-28T01:30:00.000Z,11.2
2019-04-28T01:35:00.000Z,11.1
2019-04-28T01:40:00.000Z,11.1
2019-04-28T01:45:00.000Z,11.0
2019-04-28T01:50:00.000Z,10.9
2019-04-28T01:55:00.000Z,10.8
2019-04-28T02:00:00.000Z,10.7
2019-04-28T02:05:00.000Z,10.5
2019-04-28T02:10:00.000Z,10.5
2019-04-28T02:15:00.000Z,10.4
2019-04-28T02:20:00.000Z,10.3
2019-04-28T02:25:00.000Z,10.2
2019-04-28T02:35:00.000Z,10.1
2019-04-28T02:40:00.000Z,10.1
2019-04-28T02:45:00.000Z,10.0
2019-04-28T02:50:00.000Z,10.0
2019-04-28T02:55:00.000Z,10.0
2019-04-28T03:00:00.000Z,9.9
2019-04-28T03:06:00.000Z,9.9
2019-04-28T03:11:00.000Z,9.8
2019-04-28T03:16:00.000Z,9.8
2019-04-28T03:21:00.000Z,9.8
2019-04-28T03:26:00.000Z,9.7
2019-04-28T03:31:00.000Z,9.7
2019-04-28T03:37:00.000Z,9.6
2019-04-28T03:42:00.000Z,9.6
2019-04-28T03:47:00.000Z,9.5
2019-04-28T03:52:00.000Z,9.5
2019-04-28T03:57:00.000Z,9.4
2019-04-28T04:02:00.000Z,9.4
2019-04-28T04:07:00.000Z,9.3
2019-04-28T04:12:00.000Z,9.3
2019-04-28T04:17:00.000Z,9.3
2019-04-28T04:22:00.000Z,9.2
2019-04-28T04:27:00.000Z,9.2
2019-04-28T04:32:00.000Z,9.2
2019-04-28T04:37:00.000Z,9.2
2019-04-28T04:42:00.000Z,9.3
2019-04-28T04:47:00.000Z,9.3
2019-04-28T04:52:00.000Z,9.3
2019-04-28T04:57:00.000Z,9.4
2019-04-28T05:02:00.000Z,9.5
2019-04-28T05:07:00.000Z,9.5
2019-04-28T05:12:00.000Z,9.6
2019-04-28T05:17:00.000Z,9.6
2019-04-28T05:23:00.000Z,9.7
2019-04-28T05:28:00.000Z,9.8
2019-04-28T05:33:00.000Z,9.8
2019-04-28T05:38:00.000Z,9.8
2019-04-28T05:43:00.000Z,9.8
2019-04-28T05:48:00.000Z,9.9
2019-04-28T05:53:00.000Z,10.0
2019-04-28T05:58:00.000Z,10.1
2019-04-28T06:03:00.000Z,10.2
2019-04-28T06:08:00.000Z,10.3
2019-04-28T06:13:00.000Z,10.4
2019-04-28T06:18:00.000Z,10.4
2019-04-28T06:23:00.000Z,10.5
2019-04-28T06:28:00.000Z,10.6
2019-04-28T06:33:00.000Z,10.7
2019-04-28T06:38:00.000Z,10.8
2019-04-28T06:43:00.000Z,10.9
2019-04-28T06:48:00.000Z,11.1
2019-04-28T06:53:00.000Z,11.2
2019-04-28T06:58:00.000Z,11.4
2019-04-28T07:03:00.000Z,11.6
2019-04-28T07:08:00.000Z,11.8
2019-04-28T07:13:00.000Z,11.9
2019-04-28T07:18:00.000Z,11.7
2019-04-28T07:23:00.000Z,11.6
2019-04-28T07:28:00.000Z,11.7
2019-04-28T07:33:00.000Z,11.7
2019-04-28T07:38:00.000Z,11.7
2019-04-28T07:43:00.000Z,11.8
2019-04-28T07:48:00.000Z,12.3
2019-04-28T07:53:00.000Z,12.9
2019-04-28T07:58:00.000Z,13.3
2019-04-28T08:03:00.000Z,13.8
2019-04-28T08:08:00.000Z,14.5
2019-04-28T08:13:00.000Z,14.7
2019-04-28T08:18:00.000Z,14.7
2019-04-28T08:23:00.000Z,15.0
2019-04-28T08:28:00.000Z,15.4
2019-04-28T08:33:00.000Z,15.4
2019-04-28T08:39:00.000Z,15.4
2019-04-28T08:44:00.000Z,15.2
2019-04-28T08:49:00.000Z,15.3
2019-04-28T08:54:00.000Z,15.6
2019-04-28T08:59:00.000Z,15.8
2019-04-28T09:04:00.000Z,15.6
2019-04-28T09:09:00.000Z,15.1
2019-04-28T09:14:00.000Z,14.6
2019-04-28T09:19:00.000Z,14.4
2019-04-28T09:24:00.000Z,14.4
2019-04-28T09:29:00.000Z,14.3
2019-04-28T09:34:00.000Z,14.8
2019-04-28T09:39:00.000Z,14.9
2019-04-28T09:44:00.000Z,14.7
2019-04-28T09:49:00.000Z,14.6
2019-04-28T09:54:00.000Z,14.5
2019-04-28T09:59:00.000Z,14.2
2019-04-28T10:04:00.000Z,14.3
2019-04-28T10:09:00.000Z,14.2
2019-04-28T10:14:00.000Z,14.5
2019-04-28T10:19:00.000Z,15.1
2019-04-28T10:24:00.000Z,14.9
2019-04-28T10:29:00.000Z,15.4
2019-04-28T10:34:00.000Z,16.0
2019-04-28T10:39:00.000Z,16.3
2019-04-28T10:44:00.000Z,16.6
2019-04-28T10:49:00.000Z,16.5
2019-04-28T10:54:00.000Z,16.3
2019-04-28T10:59:00.000Z,16.3
2019-04-28T11:04:00.000Z,16.3
2019-04-28T11:10:00.000Z,16.2
2019-04-28T11:15:00.000Z,16.4
2019-04-28T11:20:00.000Z,16.4
2019-04-28T11:25:00.000Z,16.5
2019-04-28T11:30:00.000Z,16.4
2019-04-28T11:35:00.000Z,16.2
2019-04-28T11:40:00.000Z,16.0
2019-04-28T11:45:00.000Z,16.2
2019-04-28T11:50:00.000Z,16.3
2019-04-28T11:55:00.000Z,16.5
2019-04-28T12:00:00.000Z,16.7
2019-04-28T12:05:00.000Z,17.0
2019-04-28T12:10:00.000Z,17.1
2019-04-28T12:15:00.000Z,17.2
2019-04-28T12:20:00.000Z,17.0
2019-04-28T12:25:00.000Z,17.2
2019-04-28T12:30:00.000Z,17.3
2019-04-28T12:35:00.000Z,17.2
2019-04-28T12:40:00.000Z,17.3
2019-04-28T12:45:00.000Z,17.1
2019-04-28T12:50:00.000Z,17.0
2019-04-28T12:55:00.000Z,16.9
2019-04-28T13:00:00.000Z,17.2
2019-04-28T13:05:00.000Z,17.2
2019-04-28T13:11:00.000Z,16.8
2019-04-28T13:16:00.000Z,16.8
2019-04-28T13:21:00.000Z,16.6
2019-04-28T13:26:00.000Z,16.6
2019-04-28T13:31:00.000Z,16.9
2019-04-28T13:36:00.000Z,17.0
2019-04-28T13:41:00.000Z,17.3
2019-04-28T13:46:00.000Z,17.7
2019-04-28T13:51:00.000Z,18.0
2019-04-28T13:56:00.000Z,18.2
2019-04-28T14:01:00.000Z,18.3
2019-04-28T14:06:00.000Z,18.2
2019-04-28T14:11:00.000Z,17.9
2019-04-28T14:16:00.000Z,17.8
2019-04-28T14:21:00.000Z,17.6
2019-04-28T14:26:00.000Z,17.6
2019-04-28T14:31:00.000Z,17.5
2019-04-28T14:36:00.000Z,17.4
2019-04-28T14:41:00.000Z,17.4
2019-04-28T14:46:00.000Z,17.3
2019-04-28T14:51:00.000Z,17.3
2019-04-28T14:56:00.000Z,17.4
2019-04-28T15:01:00.000Z,17.4
2019-04-28T15:06:00.000Z,17.5
2019-04-28T15:11:00.000Z,17.6
2019-04-28T15:17:00.000Z,17.7
2019-04-28T15:22:00.000Z,17.6
2019-04-28T15:27:00.000Z,17.4
2019-04-28T15:32:00.000Z,17.4
2019-04-28T15:37:00.000Z,17.3
2019-04-28T15:42:00.000Z,17.1
2019-04-28T15:47:00.000Z,16.8
2019-04-28T15:52:00.000Z,16.6
2019-04-28T15:57:00.000Z,16.5
2019-04-28T16:02:00.000Z,16.2
2019-04-28T16:07:00.000Z,16.1
2019-04-28T16:12:00.000Z,16.1
2019-04-28T16:17:00.000Z,16.0
2019-04-28T16:22:00.000Z,16.0
2019-04-28T16:27:00.000Z,15.9
2019-04-28T16:32:00.000Z,15.8
2019-04-28T16:37:00.000Z,15.7
2019-04-28T16:42:00.000Z,15.5
2019-04-28T16:47:00.000Z,15.4
2019-04-28T16:52:00.000Z,15.2
2019-04-28T16:57:00.000Z,15.0
2019-04-28T17:02:00.000Z,14.8
2019-04-28T17:07:00.000Z,14.6
2019-04-28T17:12:00.000Z,14.5
2019-04-28T17:17:00.000Z,14.5
2019-04-28T17:22:00.000Z,14.4
2019-04-28T17:27:00.000Z,14.4
2019-04-28T17:32:00.000Z,14.3
2019-04-28T17:37:00.000Z,14.2
2019-04-28T17:43:00.000Z,14.1
2019-04-28T17:48:00.000Z,14.1
2019-04-28T17:53:00.000Z,14.0
2019-04-28T17:58:00.000Z,13.9
2019-04-28T18:03:00.000Z,13.8
2019-04-28T18:08:00.000Z,13.7
2019-04-28T18:13:00.000Z,13.6
2019-04-28T18:18:00.000Z,13.5
2019-04-28T18:23:00.000Z,13.5
2019-04-28T18:28:00.000Z,13.4
2019-04-28T18:33:00.000Z,13.4
2019-04-28T18:38:00.000Z,13.3
2019-04-28T18:43:00.000Z,13.2
2019-04-28T18:48:00.000Z,13.2
2019-04-28T18:53:00.000Z,13.1
2019-04-28T18:58:00.000Z,13.1
2019-04-28T19:03:00.000Z,13.0
2019-04-28T19:08:00.000Z,13.0
2019-04-28T19:13:00.000Z,13.0
2019-04-28T19:18:00.000Z,12.9
2019-04-28T19:23:00.000Z,12.9
2019-04-28T19:28:00.000Z,12.9
2019-04-28T19:33:00.000Z,12.8
2019-04-28T19:38:00.000Z,12.8
2019-04-28T19:44:00.000Z,12.8
2019-04-28T19:49:00.000Z,12.8
2019-04-28T19:54:00.000Z,12.7
2019-04-28T19:59:00.000Z,12.7
2019-04-28T20:04:00.000Z,12.7
2019-04-28T20:09:00.000Z,12.6
2019-04-28T20:14:00.000Z,12.6
2019-04-28T20:19:00.000Z,12.6
2019-04-28T20:24:00.000Z,12.6
2019-04-28T20:29:00.000Z,12.5
2019-04-28T20:34:00.000Z,12.5
2019-04-28T20:39:00.000Z,12.5
2019-04-28T20:44:00.000Z,12.5
2019-04-28T20:49:00.000Z,12.5
2019-04-28T20:54:00.000Z,12.5
2019-04-28T20:59:00.000Z,12.4
2019-04-28T21:04:00.000Z,12.4
2019-04-28T21:09:00.000Z,12.4
2019-04-28T21:14:00.000Z,12.3
2019-04-28T21:19:00.000Z,12.3
2019-04-28T21:24:00.000Z,12.2
2019-04-28T21:29:00.000Z,12.2
2019-04-28T21:34:00.000Z,12.2
2019-04-28T21:39:00.000Z,12.2
2019-04-28T21:44:00.000Z,12.1
2019-04-28T21:49:00.000Z,12.1
2019-04-28T21:54:00.000Z,12.1
2019-04-28T21:59:00.000Z,12.0
2019-04-28T22:04:00.000Z,12.0
2019-04-28T22:09:00.000Z,12.0
2019-04-28T22:14:00.000Z,12.0
2019-04-28T22:19:00.000Z,12.0
2019-04-28T22:24:00.000Z,12.0
2019-04-28T22:29:00.000Z,12.0
2019-04-28T22:34:00.000Z,11.9
2019-04-28T22:39:00.000Z,11.9
2019-04-28T22:44:00.000Z,11.9
2019-04-28T22:49:00.000Z,11.9
2019-04-28T22:54:00.000Z,11.9
2019-04-28T22:59:00.000Z,11.9
2019-04-28T23:04:00.000Z,11.8
2019-04-28T23:09:00.000Z,11.8
2019-04-28T23:14:00.000Z,11.8
2019-04-28T23:19:00.000Z,11.7
2019-04-28T23:24:00.000Z,11.6
2019-04-28T23:29:00.000Z,11.5
2019-04-28T23:34:00.000Z,11.4
2019-04-28T23:39:00.000Z,11.2
2019-04-28T23:44:00.000Z,11.1
2019-04-28T23:49:00.000Z,11.1
2019-04-28T23:54:00.000Z,11.0
2019-04-28T23:59:00.000Z,11.0
